weather station
Area: 4758 km2
The highest point: Sněžka (1603 m.s.l.)
Total stations: 29
Stations online: 27
Stations offline: 2
Current weather
21°C

Meteorological map - weather stations in Královéhradecký

. The meteorological maps show weather information from WARIO weather stations

Weather stations Královéhradecký

 UpdatesNameStatusTemperatureHumidityWind speedWind direction
26.5.2024 17:25Jičín22.6 °C57.0 %0.6 m/s SW
26.5.2024 17:26Červený Kostelec - Bohdašín19.0 °C61.6 %0.7 m/s S
26.5.2024 17:25Červený Kostelec - Stolín24.7 °C58.9 %0.7 m/s S
26.5.2024 17:25Brzice-40.0 °C %1.1 m/s E
26.5.2024 17:26Červený Kostelec21.7 °C49.4 %1.4 m/s E
26.5.2024 17:25Chlumec nad Cidlinou II22.5 °C100.0 %0.0 m/s E
26.5.2024 17:26Dolany26.2 °C34.8 %1.3 m/s SW
26.5.2024 17:25Dvůr Králové nad Labem23.2 °C37.7 %1.0 m/s E
26.5.2024 17:26Vrchlabí21.1 °C55.5 %0.0 m/s E
26.5.2024 17:26Dvůr Králové nad Labem24.1 °C39.8 %1.7 m/s S
26.5.2024 17:26Horní Lánov17.9 °C74.1 %1.2 m/s N
5.5.2024 09:18Černilov18.6 °C79.2 %0.0 m/s W
26.5.2024 17:25Hronov20.9 °C60.0 %2.4 m/s SW
26.5.2024 17:26Jaroměř-Josefov24.5 °C40.8 %0.9 m/s W
26.5.2024 17:26Jičín22.9 °C57.8 %0.6 m/s S
26.5.2024 17:25Kacákova Lhota31.5 °C41.3 %0.7 m/s SE
28.4.2024 12:59Pecka - Horní Javoří °C %0.0 m/s W
26.5.2024 17:25Hajnice22.0 °C42.3 %3.1 m/s SW
26.5.2024 17:25Pohoří25.7 °C38.6 %1.3 m/s E
26.5.2024 17:26Brzice - Poruby21.5 °C55.7 %3.1 m/s SE
26.5.2024 17:26Zábřezí - Řečice23.4 °C46.0 %1.2 m/s S
26.5.2024 17:26Skuřina23.9 °C51.2 %0.7 m/s S
26.5.2024 17:25Strážné18.1 °C70.8 %0.0 m/s E
26.5.2024 17:26Třebihošť22.2 °C52.6 %1.4 m/s S
26.5.2024 17:26Velká Jesenice24.1 °C44.5 %1.1 m/s SW
26.5.2024 17:26Vrchlabí22.4 °C63.1 %0.7 m/s E
26.5.2024 17:25Vrchovnice26.0 °C46.8 %0.7 m/s SE
26.5.2024 17:26Vysoká nad Labem23.4 °C55.4 %0.8 m/s SE
26.5.2024 17:26Dvůr Králové nad Labem26.0 °C35.4 %0.6 m/s NE
Email notifications
Enter your email address to subscribe to notifications about news at warioweather.com. Your email address will not be used for any purpose other than sending these emails and will not be provided to any third party. The subscription can be ended at any time.
All data are only indicative. The portal administrator has no responsibility for potentially incorrect data and related consequences. Publishing or further sharing of content from www.warioweather.com is only allowed with written consent from WANET s.r.o.